createdAt,value
2022-11-20T00:01:11.509Z,77.02
2022-11-20T00:03:38.357Z,76.74
2022-11-20T00:06:07.820Z,76.69
2022-11-20T00:08:34.475Z,76.63
2022-11-20T00:11:16.317Z,76.26
2022-11-20T00:13:47.997Z,77.51
2022-11-20T00:16:16.411Z,76.47
2022-11-20T00:18:45.862Z,76.68
2022-11-20T00:21:15.651Z,77.88
2022-11-20T00:23:43.151Z,76.27
2022-11-20T00:26:12.778Z,76.46
2022-11-20T00:28:39.754Z,75.68
2022-11-20T00:31:12.441Z,76.73
2022-11-20T00:33:39.271Z,76.73
2022-11-20T00:36:08.804Z,77.13
2022-11-20T00:38:35.718Z,77.10
2022-11-20T00:41:07.634Z,76.21
2022-11-20T00:43:34.509Z,77.43
2022-11-20T00:46:03.270Z,77.27
2022-11-20T00:48:29.938Z,77.35
2022-11-20T00:50:56.822Z,76.95
2022-11-20T00:53:23.636Z,78.93
2022-11-20T00:55:58.713Z,78.37
2022-11-20T00:58:26.503Z,77.50
2022-11-20T01:00:53.184Z,77.02
2022-11-20T01:03:25.555Z,77.67
2022-11-20T01:05:53.473Z,76.83
2022-11-20T01:08:19.968Z,77.93
2022-11-20T01:10:46.481Z,78.02
2022-11-20T01:13:31.540Z,77.43
2022-11-20T01:16:03.813Z,77.45
2022-11-20T01:18:30.291Z,76.80
2022-11-20T01:21:00.562Z,78.02
2022-11-20T01:23:27.067Z,77.12
2022-11-20T01:25:53.557Z,77.33
2022-11-20T01:28:20.064Z,76.53
2022-11-20T01:30:46.558Z,77.99
2022-11-20T01:33:13.032Z,77.19
2022-11-20T01:35:39.532Z,76.56
2022-11-20T01:38:06.031Z,76.50
2022-11-20T01:40:32.555Z,76.70
2022-11-20T01:43:22.719Z,76.53
2022-11-20T01:46:02.467Z,77.21
2022-11-20T01:48:36.203Z,77.30
2022-11-20T01:51:04.941Z,77.40
2022-11-20T01:53:39.951Z,77.08
2022-11-20T01:56:11.099Z,77.56
2022-11-20T01:58:41.846Z,77.27
2022-11-20T02:01:08.668Z,77.54
2022-11-20T02:03:35.285Z,76.58
2022-11-20T02:06:31.688Z,77.72
2022-11-20T02:08:58.428Z,77.41
2022-11-20T02:11:24.931Z,77.45
2022-11-20T02:13:51.659Z,76.78
2022-11-20T02:16:24.172Z,77.78
2022-11-20T02:18:51.882Z,78.14
2022-11-20T02:21:31.236Z,77.22
2022-11-20T02:24:12.232Z,76.56
2022-11-20T02:27:11.938Z,77.73
2022-11-20T02:29:43.030Z,76.60
2022-11-20T02:32:39.517Z,77.39
2022-11-20T02:35:09.947Z,77.10
2022-11-20T02:37:39.806Z,77.23
2022-11-20T02:40:07.007Z,77.00
2022-11-20T02:42:33.522Z,76.83
2022-11-20T02:44:59.996Z,77.88
2022-11-20T02:47:26.556Z,77.86
2022-11-20T02:49:53.068Z,76.71
2022-11-20T02:52:19.540Z,77.30
2022-11-20T02:54:46.040Z,76.92
2022-11-20T02:57:12.545Z,76.43
2022-11-20T02:59:39.121Z,76.54
2022-11-20T03:02:05.929Z,76.05
2022-11-20T03:04:32.436Z,76.38
2022-11-20T03:06:58.993Z,76.36
2022-11-20T03:09:25.558Z,76.44
2022-11-20T03:11:53.153Z,75.73
2022-11-20T03:14:19.723Z,76.24
2022-11-20T03:16:46.259Z,76.13
2022-11-20T03:19:13.270Z,76.25
2022-11-20T03:21:40.003Z,75.21
2022-11-20T03:24:07.246Z,76.14
2022-11-20T03:26:34.291Z,74.97
2022-11-20T03:29:03.056Z,74.72
2022-11-20T03:31:32.275Z,74.67
2022-11-20T03:33:59.780Z,75.49
2022-11-20T03:36:27.082Z,75.03
2022-11-20T03:38:55.383Z,74.61
2022-11-20T03:41:27.620Z,75.94
2022-11-20T03:43:58.511Z,73.76
2022-11-20T03:46:25.533Z,74.42
2022-11-20T03:48:52.619Z,73.80
2022-11-20T03:51:27.244Z,73.44
2022-11-20T03:53:56.828Z,75.42
2022-11-20T03:56:26.573Z,74.53
2022-11-20T03:58:53.174Z,73.94
2022-11-20T04:01:22.610Z,72.98
2022-11-20T04:03:50.342Z,74.05
2022-11-20T04:06:26.099Z,74.23
2022-11-20T04:08:55.448Z,74.29
2022-11-20T04:11:30.643Z,73.13
2022-11-20T04:13:59.880Z,74.92
2022-11-20T04:16:29.670Z,73.63
2022-11-20T04:19:00.981Z,72.85
2022-11-20T04:21:28.277Z,72.37
2022-11-20T04:23:55.493Z,73.90
2022-11-20T04:26:24.240Z,72.70
2022-11-20T04:28:51.029Z,72.55
2022-11-20T04:31:20.316Z,73.19
2022-11-20T04:33:47.386Z,73.34
2022-11-20T04:36:20.002Z,72.52
2022-11-20T04:38:46.933Z,73.67
2022-11-20T04:41:17.945Z,72.93
2022-11-20T04:43:50.816Z,72.53
2022-11-20T04:46:19.618Z,74.19
2022-11-20T04:48:46.393Z,73.11
2022-11-20T04:51:13.389Z,74.50
2022-11-20T04:53:41.093Z,73.38
2022-11-20T04:56:10.940Z,73.77
2022-11-20T04:58:38.128Z,74.17
2022-11-20T05:01:06.838Z,73.56
2022-11-20T05:03:35.545Z,73.23
2022-11-20T05:06:06.361Z,74.88
2022-11-20T05:08:33.381Z,73.37
2022-11-20T05:11:02.877Z,74.66
2022-11-20T05:13:29.686Z,74.03
2022-11-20T05:15:56.349Z,73.46
2022-11-20T05:18:23.030Z,73.80
2022-11-20T05:20:56.292Z,74.21
2022-11-20T05:23:22.910Z,74.03
2022-11-20T05:25:57.465Z,74.75
2022-11-20T05:28:26.949Z,74.42
2022-11-20T05:30:53.510Z,74.35
2022-11-20T05:33:20.216Z,74.04
2022-11-20T05:35:46.827Z,74.15
2022-11-20T05:38:13.440Z,74.06
2022-11-20T05:40:39.961Z,73.67
2022-11-20T05:43:06.534Z,73.84
2022-11-20T05:45:33.062Z,75.22
2022-11-20T05:48:01.082Z,74.63
2022-11-20T05:50:30.584Z,74.65
2022-11-20T05:53:00.624Z,74.96
2022-11-20T05:55:27.893Z,74.59
2022-11-20T05:57:55.831Z,74.67
2022-11-20T06:00:22.694Z,76.28
2022-11-20T06:02:49.344Z,75.72
2022-11-20T06:05:15.994Z,75.76
2022-11-20T06:07:42.610Z,75.47
2022-11-20T06:10:09.653Z,75.17
2022-11-20T06:12:36.205Z,74.65
2022-11-20T06:15:02.811Z,74.31
2022-11-20T06:17:29.318Z,74.79
2022-11-20T06:19:55.887Z,74.52
2022-11-20T06:22:22.549Z,74.78
2022-11-20T06:24:49.342Z,74.45
2022-11-20T06:27:16.900Z,74.95
2022-11-20T06:29:43.474Z,72.52
2022-11-20T06:32:10.105Z,73.41
2022-11-20T06:34:36.649Z,72.83
2022-11-20T06:37:03.197Z,73.93
2022-11-20T06:39:29.701Z,73.74
2022-11-20T06:41:59.101Z,72.83
2022-11-20T06:44:26.436Z,72.30
2022-11-20T06:46:52.925Z,72.09
2022-11-20T06:49:19.736Z,73.45
2022-11-20T06:51:46.463Z,72.50
2022-11-20T06:54:13.026Z,72.25
2022-11-20T06:56:39.553Z,72.73
2022-11-20T06:59:07.201Z,72.25
2022-11-20T07:01:33.799Z,71.40
2022-11-20T07:04:00.349Z,72.30
2022-11-20T07:06:26.844Z,72.42
2022-11-20T07:08:53.675Z,71.09
2022-11-20T07:11:20.250Z,71.66
2022-11-20T07:13:46.746Z,71.26
2022-11-20T07:16:13.779Z,70.49
2022-11-20T07:18:40.327Z,71.46
2022-11-20T07:21:09.657Z,71.14
2022-11-20T07:23:36.777Z,70.19
2022-11-20T07:26:08.208Z,70.58
2022-11-20T07:28:35.751Z,70.61
2022-11-20T07:31:02.717Z,71.06
2022-11-20T07:33:29.520Z,72.00
2022-11-20T07:35:56.156Z,70.67
2022-11-20T07:38:22.715Z,71.78
2022-11-20T07:40:49.941Z,70.44
2022-11-20T07:43:16.462Z,71.59
2022-11-20T07:45:42.992Z,71.43
2022-11-20T07:48:09.510Z,71.88
2022-11-20T07:50:35.999Z,70.53
2022-11-20T07:53:04.847Z,70.62
2022-11-20T07:55:32.214Z,71.08
2022-11-20T07:57:59.564Z,71.29
2022-11-20T08:00:27.652Z,71.83
2022-11-20T08:02:54.463Z,71.16
2022-11-20T08:05:21.223Z,72.07
2022-11-20T08:07:47.840Z,71.07
2022-11-20T08:10:16.927Z,72.54
2022-11-20T08:13:10.213Z,71.36
2022-11-20T08:15:38.351Z,71.54
2022-11-20T08:21:03.363Z,71.48
2022-11-20T08:23:29.902Z,71.20
2022-11-20T08:25:56.482Z,71.95
2022-11-20T08:28:23.039Z,71.11
2022-11-20T08:30:51.129Z,71.16
2022-11-20T08:33:18.970Z,72.18
2022-11-20T08:35:45.751Z,70.98
2022-11-20T08:38:12.306Z,71.52
2022-11-20T08:40:38.843Z,72.18
2022-11-20T08:43:05.440Z,71.67
2022-11-20T08:45:34.702Z,70.80
2022-11-20T08:48:03.541Z,70.71
2022-11-20T08:50:32.601Z,70.44
2022-11-20T08:53:08.179Z,70.66
2022-11-20T08:55:36.581Z,70.80
2022-11-20T08:58:07.084Z,70.86
2022-11-20T09:00:34.587Z,71.91
2022-11-20T09:03:02.218Z,70.70
2022-11-20T09:05:29.943Z,70.95
2022-11-20T09:08:00.029Z,70.14
2022-11-20T09:10:27.892Z,68.83
2022-11-20T09:12:55.987Z,69.04
2022-11-20T09:15:23.504Z,70.18
2022-11-20T09:17:53.030Z,69.30
2022-11-20T09:20:19.951Z,69.58
2022-11-20T09:22:46.490Z,68.98
2022-11-20T09:25:13.071Z,69.03
2022-11-20T09:27:39.684Z,68.32
2022-11-20T09:30:06.991Z,68.83
2022-11-20T09:32:33.576Z,66.99
2022-11-20T09:37:27.546Z,68.41
2022-11-20T09:39:54.315Z,69.26
2022-11-20T09:42:42.199Z,68.48
2022-11-20T09:45:27.040Z,68.23
2022-11-20T09:48:00.535Z,67.31
2022-11-20T09:50:32.162Z,67.90
2022-11-20T09:53:13.702Z,66.32
2022-11-20T09:55:41.008Z,67.07
2022-11-20T09:58:14.882Z,65.25
2022-11-20T10:00:41.991Z,65.37
2022-11-20T10:03:17.824Z,66.14
2022-11-20T10:05:49.512Z,65.67
2022-11-20T10:08:33.354Z,64.62
2022-11-20T10:11:20.244Z,64.71
2022-11-20T10:14:01.240Z,65.50
2022-11-20T10:17:05.492Z,64.12
2022-11-20T10:20:09.488Z,64.70
2022-11-20T10:23:00.555Z,65.58
2022-11-20T10:25:30.170Z,64.63
2022-11-20T10:28:07.383Z,64.09
2022-11-20T10:30:41.559Z,65.14
2022-11-20T10:33:20.498Z,65.11
2022-11-20T10:35:54.586Z,63.13
2022-11-20T10:38:46.175Z,64.62
2022-11-20T10:41:27.345Z,65.23
2022-11-20T10:44:02.801Z,64.70
2022-11-20T10:46:38.522Z,64.01
2022-11-20T10:49:12.953Z,64.82
2022-11-20T10:51:51.601Z,65.21
2022-11-20T10:54:41.814Z,64.82
2022-11-20T10:57:34.121Z,62.64
2022-11-20T11:00:11.724Z,63.76
2022-11-20T11:02:48.837Z,64.86
2022-11-20T11:05:27.012Z,63.83
2022-11-20T11:07:58.868Z,64.26
2022-11-20T11:10:35.870Z,63.14
2022-11-20T11:13:02.579Z,63.23
2022-11-20T11:15:37.064Z,64.23
2022-11-20T11:18:03.860Z,64.57
2022-11-20T11:20:30.865Z,63.98
2022-11-20T11:22:59.527Z,63.66
2022-11-20T11:25:28.765Z,63.17
2022-11-20T11:27:59.792Z,64.84
2022-11-20T11:30:29.187Z,64.59
2022-11-20T11:33:07.518Z,64.00
2022-11-20T11:35:34.399Z,62.84
2022-11-20T11:38:24.100Z,62.11
2022-11-20T11:40:53.918Z,62.75
2022-11-20T11:43:45.020Z,63.54
2022-11-20T11:46:33.989Z,63.19
2022-11-20T11:49:06.677Z,63.53
2022-11-20T11:51:47.580Z,65.08
2022-11-20T11:54:37.413Z,64.29
2022-11-20T11:57:13.353Z,64.59
2022-11-20T11:59:52.826Z,63.37
2022-11-20T12:02:33.060Z,62.78
2022-11-20T12:05:19.939Z,62.60
2022-11-20T12:08:11.053Z,62.91
2022-11-20T12:10:46.287Z,63.79
2022-11-20T12:13:31.134Z,63.25
2022-11-20T12:15:57.742Z,64.23
2022-11-20T12:18:24.552Z,66.05
2022-11-20T12:21:10.520Z,65.99
2022-11-20T12:24:05.115Z,67.67
2022-11-20T12:26:40.997Z,67.18
2022-11-20T12:29:32.282Z,68.93
2022-11-20T12:32:17.383Z,67.26
2022-11-20T12:35:42.952Z,67.75
2022-11-20T12:38:52.039Z,67.94
2022-11-20T12:41:56.125Z,68.79
2022-11-20T12:44:41.097Z,67.23
2022-11-20T12:47:10.744Z,69.38
2022-11-20T12:49:48.576Z,70.22
2022-11-20T12:52:37.107Z,71.04
2022-11-20T12:55:12.473Z,70.74
2022-11-20T12:57:51.194Z,69.97
2022-11-20T13:00:23.156Z,70.31
2022-11-20T13:03:11.323Z,69.92
2022-11-20T13:06:03.225Z,70.71
2022-11-20T13:08:57.015Z,70.23
2022-11-20T13:11:43.787Z,70.29
2022-11-20T13:14:45.988Z,69.53
2022-11-20T13:17:25.191Z,69.56
2022-11-20T13:19:59.428Z,69.56
2022-11-20T13:22:43.246Z,70.04
2022-11-20T13:25:31.459Z,70.29
2022-11-20T13:28:00.282Z,69.81
2022-11-20T13:30:28.847Z,71.05
2022-11-20T13:33:02.217Z,70.15
2022-11-20T13:35:34.909Z,70.56
2022-11-20T13:38:15.623Z,69.67
2022-11-20T13:41:00.255Z,70.91
2022-11-20T13:43:37.856Z,71.78
2022-11-20T13:46:09.444Z,71.36
2022-11-20T13:48:44.961Z,71.91
2022-11-20T13:51:17.509Z,70.74
2022-11-20T13:54:07.781Z,70.57
2022-11-20T13:56:45.989Z,71.12
2022-11-20T13:59:41.134Z,71.74
2022-11-20T14:02:19.331Z,72.00
2022-11-20T14:04:49.282Z,72.33
2022-11-20T14:07:18.848Z,72.67
2022-11-20T14:09:56.896Z,72.32
2022-11-20T14:12:29.730Z,71.68
2022-11-20T14:14:56.705Z,71.81
2022-11-20T14:17:30.132Z,72.03
2022-11-20T14:20:02.378Z,71.56
2022-11-20T14:22:29.353Z,72.07
2022-11-20T14:25:13.255Z,70.99
2022-11-20T14:27:42.588Z,71.51
2022-11-20T14:30:17.088Z,72.16
2022-11-20T14:32:45.164Z,71.63
2022-11-20T14:35:21.679Z,71.45
2022-11-20T14:37:48.745Z,71.42
2022-11-20T14:40:26.714Z,71.04
2022-11-20T14:42:54.006Z,70.89
2022-11-20T14:45:22.069Z,71.13
2022-11-20T14:47:49.756Z,70.56
2022-11-20T14:50:27.994Z,69.69
2022-11-20T14:52:57.339Z,71.20
2022-11-20T14:55:34.638Z,70.97
2022-11-20T14:58:21.873Z,70.51
2022-11-20T15:01:04.474Z,69.64
2022-11-20T15:03:41.902Z,69.56
2022-11-20T15:06:12.605Z,67.19
2022-11-20T15:08:39.335Z,68.74
2022-11-20T15:11:19.227Z,68.52
2022-11-20T15:13:46.013Z,69.46
2022-11-20T15:16:21.548Z,68.63
2022-11-20T15:18:48.930Z,69.61
2022-11-20T15:21:18.056Z,69.64
2022-11-20T15:23:44.720Z,69.14
2022-11-20T15:26:19.496Z,69.00
2022-11-20T15:28:48.803Z,69.56
2022-11-20T15:31:18.355Z,69.82
2022-11-20T15:33:45.486Z,68.40
2022-11-20T15:36:12.068Z,69.10
2022-11-20T15:38:38.697Z,68.59
2022-11-20T15:41:05.598Z,68.57
2022-11-20T15:43:32.350Z,69.10
2022-11-20T15:46:06.245Z,68.92
2022-11-20T15:48:32.825Z,69.92
2022-11-20T15:51:11.594Z,69.77
2022-11-20T15:53:42.973Z,69.40
2022-11-20T15:56:13.919Z,69.34
2022-11-20T15:58:41.759Z,69.35
2022-11-20T16:01:14.499Z,68.57
2022-11-20T16:03:41.352Z,69.19
2022-11-20T16:06:08.242Z,70.26
2022-11-20T16:08:35.018Z,69.04
2022-11-20T16:11:02.199Z,69.08
2022-11-20T16:13:47.344Z,69.88
2022-11-20T16:16:37.851Z,69.34
2022-11-20T16:19:04.849Z,69.02
2022-11-20T16:21:32.454Z,70.13
2022-11-20T16:24:05.462Z,70.90
2022-11-20T16:26:33.066Z,70.73
2022-11-20T16:29:00.954Z,69.71
2022-11-20T16:31:27.636Z,69.82
2022-11-20T16:33:56.614Z,70.19
2022-11-20T16:36:25.344Z,70.65
2022-11-20T16:38:57.129Z,70.18
2022-11-20T16:41:24.602Z,70.41
2022-11-20T16:43:53.723Z,71.07
2022-11-20T16:46:23.504Z,71.05
2022-11-20T16:48:57.873Z,71.17
2022-11-20T16:51:25.809Z,70.68
2022-11-20T16:53:53.339Z,71.46
2022-11-20T16:56:27.002Z,71.06
2022-11-20T16:58:55.935Z,71.15
2022-11-20T17:01:24.012Z,71.96
2022-11-20T17:03:55.174Z,72.13
2022-11-20T17:06:24.830Z,71.80
2022-11-20T17:08:52.028Z,71.71
2022-11-20T17:11:19.861Z,72.40
2022-11-20T17:13:46.946Z,72.00
2022-11-20T17:16:17.147Z,72.82
2022-11-20T17:18:44.463Z,72.49
2022-11-20T17:21:12.224Z,71.75
2022-11-20T17:23:44.045Z,73.02
2022-11-20T17:26:14.687Z,71.36
2022-11-20T17:28:41.487Z,72.13
2022-11-20T17:31:17.617Z,72.28
2022-11-20T17:33:45.905Z,72.10
2022-11-20T17:36:14.633Z,73.60
2022-11-20T17:38:41.744Z,73.44
2022-11-20T17:41:13.670Z,72.49
2022-11-20T17:43:42.742Z,72.83
2022-11-20T17:46:12.130Z,73.27
2022-11-20T17:48:42.260Z,72.92
2022-11-20T17:51:17.926Z,73.25
2022-11-20T17:53:48.730Z,73.64
2022-11-20T17:56:34.323Z,73.52
2022-11-20T17:59:04.669Z,72.12
2022-11-20T18:01:31.920Z,73.09
2022-11-20T18:03:58.577Z,73.23
2022-11-20T18:06:27.224Z,72.90
2022-11-20T18:08:54.053Z,72.27
2022-11-20T18:11:26.584Z,72.05
2022-11-20T18:14:14.953Z,73.52
2022-11-20T18:16:51.107Z,72.72
2022-11-20T18:19:20.532Z,73.10
2022-11-20T18:21:47.358Z,72.25
2022-11-20T18:24:14.821Z,72.38
2022-11-20T18:26:44.504Z,73.42
2022-11-20T18:29:13.509Z,72.68
2022-11-20T18:31:41.208Z,73.01
2022-11-20T18:34:11.682Z,72.54
2022-11-20T18:36:38.534Z,73.15
2022-11-20T18:39:05.583Z,72.68
2022-11-20T18:41:51.504Z,73.27
2022-11-20T18:44:42.430Z,73.43
2022-11-20T18:47:14.538Z,72.94
2022-11-20T18:49:50.968Z,73.29
2022-11-20T18:52:20.133Z,72.46
2022-11-20T18:54:46.745Z,72.55
2022-11-20T18:57:16.112Z,72.59
2022-11-20T18:59:43.308Z,73.58
2022-11-20T19:02:14.910Z,72.58
2022-11-20T19:04:41.915Z,72.62
2022-11-20T19:07:11.938Z,72.27
2022-11-20T19:09:40.419Z,72.74
2022-11-20T19:12:09.247Z,72.69
2022-11-20T19:14:35.887Z,73.56
2022-11-20T19:17:03.774Z,73.36
2022-11-20T19:19:30.690Z,72.80
2022-11-20T19:21:57.309Z,72.74
2022-11-20T19:24:24.445Z,72.50
2022-11-20T19:26:51.323Z,73.28
2022-11-20T19:29:18.988Z,71.88
2022-11-20T19:31:45.595Z,72.08
2022-11-20T19:34:12.223Z,72.64
2022-11-20T19:36:44.688Z,72.72
2022-11-20T19:39:12.249Z,73.01
2022-11-20T19:41:40.573Z,72.82
2022-11-20T19:44:10.131Z,71.78
2022-11-20T19:46:38.340Z,71.50
2022-11-20T19:49:09.309Z,71.50
2022-11-20T19:51:38.087Z,72.21
2022-11-20T19:54:05.759Z,72.17
2022-11-20T19:56:33.748Z,72.00
2022-11-20T19:59:01.525Z,71.67
2022-11-20T20:01:30.647Z,72.22
2022-11-20T20:04:01.503Z,72.37
2022-11-20T20:06:29.252Z,71.46
2022-11-20T20:09:05.930Z,71.05
2022-11-20T20:11:34.130Z,72.48
2022-11-20T20:14:03.011Z,72.11
2022-11-20T20:16:29.709Z,72.69
2022-11-20T20:18:57.751Z,72.89
2022-11-20T20:21:24.583Z,72.40
2022-11-20T20:23:53.515Z,71.86
2022-11-20T20:26:21.353Z,71.80
2022-11-20T20:28:48.349Z,72.40
2022-11-20T20:31:18.597Z,72.89
2022-11-20T20:33:45.853Z,71.85
2022-11-20T20:36:15.370Z,72.51
2022-11-20T20:38:43.162Z,72.16
2022-11-20T20:41:10.534Z,72.36
2022-11-20T20:43:56.240Z,72.21
2022-11-20T20:46:23.778Z,72.78
2022-11-20T20:48:54.453Z,71.59
2022-11-20T20:51:22.629Z,71.73
2022-11-20T20:53:49.879Z,71.89
2022-11-20T20:56:17.826Z,71.00
2022-11-20T20:58:44.673Z,71.88
2022-11-20T21:01:14.051Z,72.56
2022-11-20T21:03:41.572Z,72.18
2022-11-20T21:06:10.999Z,71.40
2022-11-20T21:08:40.699Z,71.78
2022-11-20T21:11:09.574Z,71.52
2022-11-20T21:13:37.573Z,72.09
2022-11-20T21:16:05.231Z,72.11
2022-11-20T21:18:32.359Z,72.03
2022-11-20T21:21:17.590Z,72.35
2022-11-20T21:23:48.016Z,72.41
2022-11-20T21:26:16.145Z,71.11
2022-11-20T21:28:43.210Z,71.47
2022-11-20T21:31:16.102Z,72.00
2022-11-20T21:33:45.494Z,69.40
2022-11-20T21:36:14.713Z,69.57
2022-11-20T21:38:41.654Z,67.76
2022-11-20T21:41:10.536Z,68.44
2022-11-20T21:43:37.778Z,68.31
2022-11-20T21:46:09.698Z,68.78
2022-11-20T21:48:37.954Z,67.97
2022-11-20T21:51:06.960Z,69.64
2022-11-20T21:53:36.705Z,69.65
2022-11-20T21:56:09.149Z,70.28
2022-11-20T21:58:36.757Z,71.89
2022-11-20T22:01:11.334Z,71.38
2022-11-20T22:03:38.612Z,73.05
2022-11-20T22:06:06.708Z,72.80
2022-11-20T22:08:38.126Z,73.94
2022-11-20T22:11:07.341Z,73.43
2022-11-20T22:13:52.872Z,74.73
2022-11-20T22:16:19.675Z,74.72
2022-11-20T22:18:56.816Z,75.69
2022-11-20T22:21:26.085Z,76.55
2022-11-20T22:23:53.301Z,76.19
2022-11-20T22:26:22.618Z,77.30
2022-11-20T22:28:51.333Z,77.58
2022-11-20T22:31:19.400Z,77.57
2022-11-20T22:33:46.139Z,77.91
2022-11-20T22:36:15.759Z,78.50
2022-11-20T22:38:42.728Z,79.03
2022-11-20T22:41:18.345Z,80.02
2022-11-20T22:43:45.500Z,80.20
2022-11-20T22:46:17.496Z,80.59
2022-11-20T22:48:49.437Z,81.07
2022-11-20T22:51:17.967Z,81.26
2022-11-20T22:53:44.971Z,81.74
2022-11-20T22:56:12.809Z,81.95
2022-11-20T22:58:41.559Z,82.45
2022-11-20T23:01:16.885Z,82.51
2022-11-20T23:03:46.096Z,82.39
2022-11-20T23:06:13.451Z,82.97
2022-11-20T23:08:41.625Z,83.83
2022-11-20T23:11:20.034Z,83.46
2022-11-20T23:13:46.833Z,84.01
2022-11-20T23:16:15.827Z,83.78
2022-11-20T23:18:43.407Z,83.84
2022-11-20T23:21:18.590Z,83.47
2022-11-20T23:23:50.605Z,84.63
2022-11-20T23:26:19.198Z,83.75
2022-11-20T23:28:46.199Z,84.24
2022-11-20T23:31:14.098Z,84.65
2022-11-20T23:33:42.820Z,85.05
2022-11-20T23:36:09.928Z,84.32
2022-11-20T23:38:36.731Z,84.92
2022-11-20T23:41:04.183Z,84.11
2022-11-20T23:43:31.346Z,84.24
2022-11-20T23:46:00.112Z,84.30
2022-11-20T23:48:31.874Z,83.84
2022-11-20T23:50:58.732Z,84.24
2022-11-20T23:53:25.821Z,83.75
2022-11-20T23:55:58.562Z,84.00
2022-11-20T23:58:35.699Z,84.04
